Time;durP1;ratioP1;P1;durP2;ratioP2;P2;SDS_P1;SDS_P2;PMS_P1;PMS_P2;Temp;Humidity;BMP_temperature;BMP_pressure;BME280_temperature;BME280_humidity;BME280_pressure;Samples;Min_cycle;Max_cycle;Signal;HPM_P1;HPM_P2
2023/05/18 00:03:32;;;;;;;2.47;1.53;;;;;;;17.27;62.54;97113.25;10393209;28;20056;-25
2023/05/18 00:08:33;;;;;;;1.35;1.15;;;;;;;17.27;62.58;97100.59;10383364;28;20296;-26
2023/05/18 00:13:34;;;;;;;3.08;1.90;;;;;;;17.24;62.48;97093.00;10385533;28;20029;-26
2023/05/18 00:18:34;;;;;;;1.13;1.00;;;;;;;17.25;62.84;97089.63;10393459;28;20037;-26
2023/05/18 00:23:38;;;;;;;1.83;1.10;;;;;;;17.24;62.46;97077.81;10384606;28;20302;-26
2023/05/18 00:28:38;;;;;;;1.70;1.42;;;;;;;17.29;62.58;97081.22;10399790;28;20040;-25
2023/05/18 00:33:39;;;;;;;1.80;1.15;;;;;;;17.32;62.54;97076.19;10399015;28;20044;-26
2023/05/18 00:38:39;;;;;;;2.22;1.27;;;;;;;17.33;62.35;97078.72;10371670;28;20062;-25
2023/05/18 00:43:40;;;;;;;2.35;1.13;;;;;;;17.30;62.11;97077.84;10390684;28;20409;-26
2023/05/18 00:48:41;;;;;;;1.35;1.17;;;;;;;17.27;62.38;97080.34;10376037;28;20394;-25
2023/05/18 00:53:42;;;;;;;2.40;1.25;;;;;;;17.25;62.52;97085.38;10393815;28;20037;-26
2023/05/18 00:58:42;;;;;;;1.50;1.10;;;;;;;17.27;62.43;97072.75;10377126;28;20042;-26
2023/05/18 01:03:43;;;;;;;2.00;1.10;;;;;;;17.24;62.37;97070.22;10410845;28;20037;-25
2023/05/18 01:08:43;;;;;;;2.08;1.27;;;;;;;17.22;62.54;97065.13;10391705;28;20038;-26
2023/05/18 01:14:05;;;;;;;1.52;0.90;;;;;;;17.23;62.25;97068.53;10383307;28;20052;-26
2023/05/18 01:19:12;;;;;;;3.20;1.10;;;;;;;17.22;62.14;97065.13;10380516;28;20029;-26
2023/05/18 01:24:44;;;;;;;1.75;1.20;;;;;;;17.23;62.31;97066.00;10382226;28;20040;-25
2023/05/18 01:29:44;;;;;;;1.33;1.08;;;;;;;17.29;63.07;97066.91;10377365;28;20061;-26
2023/05/18 01:34:45;;;;;;;2.47;1.08;;;;;;;17.29;62.49;97056.78;10391049;28;20512;-26
2023/05/18 01:39:46;;;;;;;1.45;1.05;;;;;;;17.29;61.94;97040.72;10374672;28;20029;-26
2023/05/18 01:44:52;;;;;;;1.77;1.20;;;;;;;17.25;62.25;97033.94;10377313;28;20050;-26
2023/05/18 01:50:09;;;;;;;3.20;1.53;;;;;;;17.22;62.35;97033.91;10360193;28;20029;-25
2023/05/18 01:55:11;;;;;;;3.20;1.35;;;;;;;17.20;62.61;97036.44;10382027;28;20414;-26
2023/05/18 02:00:12;;;;;;;3.00;1.27;;;;;;;17.20;62.52;97030.53;10367092;28;20117;-26
2023/05/18 02:05:20;;;;;;;3.30;1.00;;;;;;;17.19;62.61;97023.75;10359374;28;20021;-26
2023/05/18 02:10:21;;;;;;;4.30;1.10;;;;;;;17.20;62.46;97023.78;10365138;28;20458;-26
2023/05/18 02:15:22;;;;;;;2.15;1.20;;;;;;;17.19;62.20;97023.75;10367137;28;20038;-26
2023/05/18 02:20:23;;;;;;;2.80;1.52;;;;;;;17.20;62.43;97017.88;10390831;28;20036;-25
2023/05/18 02:25:25;;;;;;;1.65;1.15;;;;;;;17.26;62.45;97015.41;10367932;28;20042;-26
2023/05/18 02:30:25;;;;;;;2.75;1.02;;;;;;;17.27;62.50;97017.09;10351963;28;20029;-26
2023/05/18 02:35:26;;;;;;;1.70;1.10;;;;;;;17.29;63.05;97010.34;10392125;28;20129;-26
2023/05/18 02:40:26;;;;;;;1.90;1.05;;;;;;;17.24;62.31;97001.91;10354586;28;20660;-26
2023/05/18 02:45:27;;;;;;;1.92;1.25;;;;;;;17.21;62.36;96996.78;10366501;28;20076;-25
2023/05/18 02:50:28;;;;;;;4.53;1.35;;;;;;;17.20;62.31;96995.97;10372269;28;20030;-26
2023/05/18 02:55:29;;;;;;;1.48;0.93;;;;;;;17.18;62.52;96997.63;10349505;28;20042;-26
2023/05/18 03:00:40;;;;;;;2.10;1.30;;;;;;;17.19;62.52;97003.53;10350142;28;20041;-26
2023/05/18 03:05:42;;;;;;;1.67;1.00;;;;;;;17.16;62.17;96998.44;10349189;28;20040;-26
2023/05/18 03:10:42;;;;;;;2.17;1.30;;;;;;;17.16;62.43;96998.44;10350716;28;20084;-26
2023/05/18 03:15:44;;;;;;;1.88;1.08;;;;;;;17.18;62.41;97009.41;10348492;28;20541;-26
2023/05/18 03:20:45;;;;;;;1.83;1.52;;;;;;;17.15;62.30;96996.75;10361382;28;20402;-26
2023/05/18 03:25:52;;;;;;;1.63;1.20;;;;;;;17.22;62.40;96999.34;10354039;28;20084;-26
2023/05/18 03:30:55;;;;;;;;;;;;;;;17.25;62.67;96998.53;10353283;28;20069;-26
2023/05/18 03:35:56;;;;;;;2.15;1.45;;;;;;;17.26;62.14;96996.00;10368899;28;20360;-26
2023/05/18 03:40:57;;;;;;;1.52;1.17;;;;;;;17.18;62.18;96996.78;10379740;28;20041;-26
2023/05/18 03:45:58;;;;;;;2.08;0.80;;;;;;;17.20;62.25;96995.97;10375518;28;20033;-25
2023/05/18 03:50:59;;;;;;;1.63;1.10;;;;;;;17.19;62.03;96998.47;10360736;28;20440;-26
2023/05/18 03:56:05;;;;;;;1.70;1.50;;;;;;;17.18;62.34;97001.84;10370408;28;20032;-26
2023/05/18 04:01:05;;;;;;;1.23;1.00;;;;;;;17.21;61.86;97000.19;10387555;28;20396;-26
2023/05/18 04:06:06;;;;;;;1.42;1.05;;;;;;;17.24;61.56;97012.03;10375462;28;20501;-26
2023/05/18 04:11:06;;;;;;;3.80;1.10;;;;;;;17.29;61.40;97013.75;10394032;28;20025;-26
2023/05/18 04:16:07;;;;;;;1.40;1.00;;;;;;;17.33;61.31;97012.09;10375429;28;20030;-26
2023/05/18 04:21:08;;;;;;;1.10;1.00;;;;;;;17.35;61.07;97008.75;10373623;28;20092;-26
2023/05/18 04:26:09;;;;;;;2.97;1.63;;;;;;;17.36;61.60;97012.16;10365055;28;20292;-26
2023/05/18 04:31:13;;;;;;;2.08;1.10;;;;;;;17.36;62.18;97002.88;10368086;28;20030;-25
2023/05/18 04:36:13;;;;;;;0.93;0.85;;;;;;;17.39;61.31;97013.03;10379651;28;20034;-25
2023/05/18 04:41:19;;;;;;;1.10;0.63;;;;;;;17.41;60.96;97016.41;10362467;28;20034;-26
2023/05/18 04:46:23;;;;;;;1.42;0.85;;;;;;;17.38;61.42;97016.41;10371296;28;20038;-25
2023/05/18 04:51:24;;;;;;;1.73;1.13;;;;;;;17.41;61.20;97018.13;10354722;28;20060;-26
2023/05/18 04:56:25;;;;;;;1.52;0.88;;;;;;;17.41;61.26;97031.59;10359592;28;20441;-26
2023/05/18 05:01:26;;;;;;;1.90;1.05;;;;;;;17.42;61.08;97035.00;10396543;28;20061;-25
2023/05/18 05:06:27;;;;;;;1.48;0.90;;;;;;;17.42;61.67;97038.34;10368268;28;20039;-26
2023/05/18 05:11:28;;;;;;;1.35;0.98;;;;;;;17.42;61.35;97037.53;10386385;28;20040;-26
2023/05/18 05:16:31;;;;;;;0.93;0.80;;;;;;;17.42;61.44;97038.34;10371327;28;20449;-26
2023/05/18 05:21:31;;;;;;;2.30;1.13;;;;;;;17.40;61.48;97037.50;10369143;28;20497;-26
2023/05/18 05:26:32;;;;;;;1.48;1.10;;;;;;;17.43;61.68;97034.16;10360221;28;20038;-26
2023/05/18 05:31:33;;;;;;;1.13;1.00;;;;;;;17.40;61.45;97032.44;10370103;28;20040;-26
2023/05/18 05:36:34;;;;;;;2.10;1.27;;;;;;;17.41;61.12;97026.53;10393908;28;20033;-27
2023/05/18 05:41:34;;;;;;;1.85;1.17;;;;;;;17.41;61.43;97028.25;10360564;28;20045;-25
2023/05/18 05:46:35;;;;;;;2.83;1.42;;;;;;;17.39;61.27;97019.75;10394039;28;20501;-26
2023/05/18 05:51:36;;;;;;;1.80;1.00;;;;;;;17.38;61.40;97016.41;10384872;28;20053;-26
2023/05/18 05:56:37;;;;;;;2.08;1.17;;;;;;;17.37;61.26;97008.78;10364108;28;20116;-26
2023/05/18 06:01:37;;;;;;;1.98;1.20;;;;;;;17.39;61.23;97012.16;10369492;28;20575;-27
2023/05/18 06:06:38;;;;;;;1.33;1.10;;;;;;;17.35;61.62;97011.28;10365815;28;20168;-25
2023/05/18 06:11:40;;;;;;;4.97;0.98;;;;;;;17.36;61.12;97009.63;10374961;28;20052;-26
2023/05/18 06:16:40;;;;;;;2.45;1.60;;;;;;;17.30;59.35;97012.06;10366075;28;20152;-26
2023/05/18 06:21:42;;;;;;;1.27;1.17;;;;;;;17.34;61.10;97013.78;10357301;28;20041;-25
2023/05/18 06:26:44;;;;;;;3.85;1.70;;;;;;;17.33;61.56;97012.94;10373515;28;20036;-26
2023/05/18 06:32:07;;;;;;;1.45;1.30;;;;;;;17.34;61.44;97004.50;10374377;28;20558;-25
2023/05/18 06:37:13;;;;;;;2.37;1.10;;;;;;;17.35;61.35;97012.97;10350162;28;20030;-26
2023/05/18 06:42:13;;;;;;;3.30;1.45;;;;;;;17.35;61.09;97007.91;10382559;28;20653;-26
2023/05/18 06:47:26;;;;;;;1.63;1.15;;;;;;;17.31;61.42;97006.19;10374757;28;20034;-26
2023/05/18 06:52:26;;;;;;;2.38;1.20;;;;;;;17.33;61.32;97007.88;10366095;28;20040;-25
2023/05/18 06:57:27;;;;;;;2.25;1.10;;;;;;;17.29;61.31;97025.53;10346152;28;20414;-26
2023/05/18 07:02:27;;;;;;;2.20;1.17;;;;;;;17.28;61.28;97006.13;10352500;28;20036;-25
2023/05/18 07:07:28;;;;;;;1.73;1.30;;;;;;;17.25;61.03;97001.88;10366066;28;20034;-25
2023/05/18 07:12:28;;;;;;;11.80;2.13;;;;;;;17.15;59.23;97006.88;10375135;28;20037;-26
2023/05/18 07:17:29;;;;;;;5.80;2.20;;;;;;;17.22;58.85;97001.88;10358347;28;20091;-26
2023/05/18 07:22:30;;;;;;;3.00;1.92;;;;;;;17.29;60.00;97002.78;10367553;28;20030;-25
2023/05/18 07:27:32;;;;;;;2.67;1.53;;;;;;;17.35;59.80;97006.22;10367420;28;20037;-26
2023/05/18 07:32:32;;;;;;;8.23;2.17;;;;;;;17.33;59.91;97001.97;10376663;28;20371;-26
2023/05/18 07:37:32;;;;;;;2.50;1.65;;;;;;;17.34;60.03;97008.72;10378054;28;20141;-25
2023/05/18 07:42:35;;;;;;;7.20;2.80;;;;;;;17.26;56.92;97005.28;10366111;28;20525;-26
2023/05/18 07:47:35;;;;;;;7.18;2.35;;;;;;;17.27;56.19;97006.97;10374189;28;20700;-26
2023/05/18 07:52:36;;;;;;;5.90;2.30;;;;;;;17.32;57.38;97000.28;10366006;28;20084;-26
2023/05/18 07:57:36;;;;;;;4.63;2.40;;;;;;;17.29;55.99;96997.72;10365836;28;20030;-24
2023/05/18 08:02:37;;;;;;;8.60;2.95;;;;;;;17.31;56.76;97003.66;10366424;28;20291;-25
2023/05/18 08:07:37;;;;;;;8.05;2.83;;;;;;;17.26;54.50;96995.16;10376077;28;20045;-26
2023/05/18 08:12:38;;;;;;;4.68;2.47;;;;;;;17.29;56.42;96990.97;10379837;28;20038;-26
2023/05/18 08:17:38;;;;;;;5.45;2.72;;;;;;;17.26;56.43;96990.09;10386389;28;20029;-26
2023/05/18 08:22:39;;;;;;;4.40;2.45;;;;;;;17.35;56.74;96990.19;10365201;28;20206;-26
2023/05/18 08:27:39;;;;;;;7.80;2.50;;;;;;;17.42;56.81;96989.44;10368216;28;20066;-25
2023/05/18 08:32:40;;;;;;;8.48;2.30;;;;;;;17.42;56.89;96989.44;10378633;28;20026;-26
2023/05/18 08:37:41;;;;;;;24.17;20.10;;;;;;;17.45;57.43;96997.03;10388125;28;20037;-26
2023/05/18 08:42:47;;;;;;;19.67;17.65;;;;;;;17.43;57.45;96993.66;10382222;28;20038;-26
2023/05/18 08:47:53;;;;;;;;;;;;;;;17.40;57.47;96996.19;10373151;28;20042;-26
2023/05/18 08:52:55;;;;;;;16.77;12.95;;;;;;;17.31;55.07;96991.84;10360951;28;20061;-26
2023/05/18 08:57:58;;;;;;;17.90;16.05;;;;;;;17.41;56.70;96997.88;10367240;28;20513;-25
2023/05/18 09:03:01;;;;;;;18.15;15.73;;;;;;;17.42;56.29;96995.31;10396490;28;20040;-26
2023/05/18 09:08:02;;;;;;;18.92;14.90;;;;;;;17.43;56.26;96993.66;10367293;28;20034;-26
2023/05/18 09:13:04;;;;;;;19.83;14.85;;;;;;;17.43;55.57;97001.25;10370047;28;20121;-26
2023/05/18 09:18:04;;;;;;;16.77;14.73;;;;;;;17.45;54.83;96991.97;10363729;28;20022;-26
2023/05/18 09:23:05;;;;;;;13.68;11.75;;;;;;;17.49;53.17;96999.59;10374058;28;20034;-26
2023/05/18 09:28:05;;;;;;;12.37;11.17;;;;;;;17.51;52.89;96986.97;10359185;28;20040;-26
2023/05/18 09:33:15;;;;;;;11.50;9.68;;;;;;;17.49;52.20;97001.31;10353018;28;20668;-26
2023/05/18 09:38:20;;;;;;;12.65;10.20;;;;;;;17.46;53.50;97001.25;10361518;28;20042;-26
2023/05/18 09:43:21;;;;;;;11.93;9.60;;;;;;;17.43;55.11;96984.41;10344591;28;20081;-27
2023/05/18 09:48:21;;;;;;;14.70;9.93;;;;;;;17.36;55.33;96989.38;10366753;28;20116;-26
2023/05/18 09:53:22;;;;;;;13.32;9.15;;;;;;;17.43;56.11;96988.59;10364368;28;20053;-30
2023/05/18 09:58:23;;;;;;;10.00;8.70;;;;;;;17.41;56.69;96985.22;10369600;28;20060;-26
2023/05/18 10:03:24;;;;;;;12.40;7.97;;;;;;;17.38;56.95;96975.03;10370416;28;20030;-26
2023/05/18 10:08:24;;;;;;;25.00;9.50;;;;;;;17.35;57.58;96977.53;10371626;28;20029;-26
2023/05/18 10:13:26;;;;;;;11.43;8.75;;;;;;;17.35;57.63;96980.91;10377268;28;20050;-26
2023/05/18 10:18:29;;;;;;;9.93;6.53;;;;;;;17.37;55.11;96980.94;10388136;28;20507;-25
2023/05/18 10:23:32;;;;;;;9.20;5.32;;;;;;;17.41;52.87;96988.56;10341809;28;20574;-26
2023/05/18 10:28:37;;;;;;;9.38;4.53;;;;;;;17.43;50.49;96983.53;10380777;28;20510;-25
2023/05/18 10:33:38;;;;;;;10.18;5.85;;;;;;;17.44;54.34;96990.28;10376085;28;20095;-25
2023/05/18 10:38:42;;;;;;;13.25;6.47;;;;;;;17.40;55.20;96973.41;10350739;28;20454;-26
2023/05/18 10:43:44;;;;;;;10.23;6.22;;;;;;;17.37;55.98;96974.22;10366705;28;20037;-26
2023/05/18 10:48:47;;;;;;;15.98;6.85;;;;;;;17.33;56.87;96966.56;10371348;28;20030;-26
2023/05/18 10:53:47;;;;;;;12.77;6.30;;;;;;;17.36;57.06;96966.59;10374346;28;20632;-26
2023/05/18 10:58:48;;;;;;;14.70;7.00;;;;;;;17.34;57.39;96968.25;10375125;28;20125;-26
2023/05/18 11:03:48;;;;;;;11.90;6.53;;;;;;;17.35;57.53;96967.41;10367087;28;20512;-26
2023/05/18 11:08:49;;;;;;;10.93;6.97;;;;;;;17.35;57.44;96962.34;10384393;28;20406;-26
2023/05/18 11:13:50;;;;;;;9.18;6.50;;;;;;;17.32;57.78;96959.81;10385255;28;20030;-26
2023/05/18 11:18:51;;;;;;;10.52;7.60;;;;;;;17.33;58.26;96969.91;10382904;28;20520;-26
2023/05/18 11:24:17;;;;;;;10.60;7.85;;;;;;;17.30;58.54;96967.38;10383945;28;20041;-26
2023/05/18 11:29:39;;;;;;;9.65;7.45;;;;;;;17.30;58.60;96963.97;10376545;28;20040;-26
2023/05/18 11:34:43;;;;;;;10.25;7.18;;;;;;;17.31;58.41;96968.22;10383975;28;20041;-26
2023/05/18 11:39:54;;;;;;;8.32;6.85;;;;;;;17.31;58.51;96975.81;10374976;28;20045;-26
2023/05/18 11:45:05;;;;;;;8.48;6.82;;;;;;;17.32;58.73;96967.38;10393615;28;20425;-26
2023/05/18 11:50:07;;;;;;;8.18;6.53;;;;;;;17.29;58.61;96969.88;10370731;28;20037;-25
2023/05/18 11:55:12;;;;;;;10.02;7.03;;;;;;;17.32;58.51;96974.97;10371541;28;20154;-25
2023/05/18 12:00:14;;;;;;;8.65;7.20;;;;;;;17.30;58.85;96971.56;10366886;28;20038;-26
2023/05/18 12:05:15;;;;;;;7.32;6.18;;;;;;;17.30;59.03;96971.56;10369391;28;20042;-26
2023/05/18 12:10:16;;;;;;;8.13;7.03;;;;;;;17.30;59.15;96974.09;10382681;28;20084;-26
2023/05/18 12:15:21;;;;;;;7.75;6.90;;;;;;;17.27;59.03;96969.03;10389459;28;20029;-25
2023/05/18 12:20:29;;;;;;;7.35;6.65;;;;;;;17.27;59.33;96969.88;10372624;28;20083;-25
2023/05/18 12:25:30;;;;;;;11.07;7.00;;;;;;;17.28;59.49;96968.19;10387195;28;20048;-26
2023/05/18 12:30:33;;;;;;;10.02;7.00;;;;;;;17.29;59.54;96977.47;10398320;28;20394;-26
2023/05/18 12:35:33;;;;;;;7.15;6.18;;;;;;;17.28;59.04;96969.03;10372678;28;20264;-26
2023/05/18 12:40:47;;;;;;;6.23;5.63;;;;;;;17.28;59.24;96965.66;10397283;28;20060;-26
2023/05/18 12:45:48;;;;;;;7.80;6.43;;;;;;;17.27;59.33;96971.56;10380974;28;20136;-26
2023/05/18 12:50:50;;;;;;;7.88;6.68;;;;;;;17.29;59.30;96973.25;10394665;28;20040;-26
2023/05/18 12:55:58;;;;;;;7.25;6.47;;;;;;;17.26;59.42;96959.75;10394779;28;20029;-26
2023/05/18 13:01:08;;;;;;;10.32;6.63;;;;;;;17.28;59.50;96960.59;10384373;28;20036;-26
2023/05/18 13:06:09;;;;;;;8.02;6.13;;;;;;;17.28;59.12;96958.06;10379733;28;20037;-26
2023/05/18 13:11:15;;;;;;;8.13;6.78;;;;;;;17.27;59.28;96967.34;10387279;28;20030;-26
2023/05/18 13:16:16;;;;;;;6.30;5.70;;;;;;;17.26;59.54;96965.63;10398493;28;20076;-26
2023/05/18 13:21:17;;;;;;;6.82;6.13;;;;;;;17.28;59.96;96973.25;10371155;28;20533;-26
2023/05/18 13:26:24;;;;;;;6.28;5.68;;;;;;;17.26;60.01;96970.69;10391439;28;20079;-26
2023/05/18 13:31:24;;;;;;;7.03;6.07;;;;;;;17.29;60.06;96969.88;10372577;28;20193;-26
2023/05/18 13:36:25;;;;;;;7.97;6.05;;;;;;;17.28;59.68;96966.50;10378569;28;20410;-25
2023/05/18 13:41:26;;;;;;;7.70;5.75;;;;;;;17.25;59.73;96974.06;10384758;28;20030;-26
2023/05/18 13:46:26;;;;;;;6.03;5.43;;;;;;;17.26;59.84;96973.22;10385848;28;20098;-26
2023/05/18 13:51:26;;;;;;;7.10;6.03;;;;;;;17.27;59.83;96969.03;10390062;28;20157;-26
2023/05/18 13:56:27;;;;;;;6.53;5.93;;;;;;;17.25;59.54;96968.16;10385398;28;20038;-25
2023/05/18 14:01:31;;;;;;;7.53;6.03;;;;;;;17.25;60.02;96963.09;10386917;28;20048;-26
2023/05/18 14:06:31;;;;;;;6.55;5.85;;;;;;;17.24;59.84;96962.25;10393515;28;20288;-26
2023/05/18 14:11:37;;;;;;;7.87;5.37;;;;;;;17.25;59.89;96958.03;10368820;28;20034;-26
2023/05/18 14:16:37;;;;;;;6.32;5.72;;;;;;;17.24;59.87;96961.41;10369492;28;20072;-26
2023/05/18 14:21:37;;;;;;;7.35;5.97;;;;;;;17.23;60.25;96960.56;10376718;28;20569;-25
2023/05/18 14:26:38;;;;;;;7.97;6.43;;;;;;;17.26;60.22;96960.56;10383991;28;20044;-26
2023/05/18 14:31:38;;;;;;;6.03;5.43;;;;;;;17.26;60.14;96954.69;10385163;28;20033;-26
2023/05/18 14:36:38;;;;;;;9.63;6.03;;;;;;;17.26;55.61;96957.22;10370210;28;20037;-26
2023/05/18 14:41:39;;;;;;;8.37;6.00;;;;;;;17.26;59.36;96947.09;10375334;28;20433;-25
2023/05/18 14:46:40;;;;;;;12.90;6.03;;;;;;;17.26;59.35;96947.91;10373511;28;20034;-26
2023/05/18 14:51:40;;;;;;;6.40;5.20;;;;;;;17.27;58.70;96947.09;10368390;28;20305;-26
2023/05/18 14:56:40;;;;;;;8.45;4.15;;;;;;;17.32;58.83;96935.31;10374902;28;20625;-26
2023/05/18 15:01:41;;;;;;;10.63;5.30;;;;;;;17.32;58.73;96942.91;10367584;28;20045;-26
2023/05/18 15:06:41;;;;;;;5.90;5.03;;;;;;;17.32;58.57;96944.63;10374025;28;20488;-25
2023/05/18 15:11:42;;;;;;;11.40;5.13;;;;;;;17.35;58.54;96935.38;10366047;28;20052;-26
2023/05/18 15:16:42;;;;;;;38.70;8.37;;;;;;;17.38;59.28;96939.59;10374209;28;20053;-26
2023/05/18 15:21:43;;;;;;;13.63;5.47;;;;;;;17.39;58.84;96951.44;10377621;28;20371;-27
2023/05/18 15:26:44;;;;;;;14.35;6.18;;;;;;;17.37;59.33;96948.03;10379524;28;20038;-25
2023/05/18 15:31:45;;;;;;;17.58;5.25;;;;;;;17.45;58.10;96946.41;10375280;28;20041;-26
2023/05/18 15:36:46;;;;;;;7.80;5.07;;;;;;;17.44;58.18;96952.31;10376929;28;20057;-25
2023/05/18 15:41:46;;;;;;;13.13;5.53;;;;;;;17.44;58.27;96947.25;10381277;28;20092;-26
2023/05/18 15:46:46;;;;;;;16.50;5.63;;;;;;;17.45;58.55;96948.94;10386703;28;20034;-25
2023/05/18 15:51:47;;;;;;;6.23;4.67;;;;;;;17.46;58.42;96940.53;10389908;28;20084;-26
2023/05/18 15:56:47;;;;;;;8.47;4.80;;;;;;;17.45;58.33;96952.34;10395320;28;20045;-26
2023/05/18 16:01:47;;;;;;;7.77;4.77;;;;;;;17.46;58.68;96948.13;10382390;28;20426;-26
2023/05/18 16:06:48;;;;;;;6.60;4.90;;;;;;;17.44;58.91;96944.72;10398281;28;20111;-25
2023/05/18 16:11:48;;;;;;;8.63;4.47;;;;;;;17.46;58.64;96943.06;10378714;28;20041;-26
2023/05/18 16:16:48;;;;;;;9.20;4.80;;;;;;;17.39;58.85;96949.75;10391068;28;20549;-26
2023/05/18 16:21:49;;;;;;;13.77;4.97;;;;;;;17.44;59.06;96937.13;10380699;28;20033;-25
2023/05/18 16:26:49;;;;;;;5.77;4.50;;;;;;;17.41;59.50;96950.59;10384786;28;20095;-26
2023/05/18 16:31:50;;;;;;;8.37;5.10;;;;;;;17.45;59.16;96948.94;10381791;28;20279;-26
2023/05/18 16:36:51;;;;;;;13.63;5.88;;;;;;;17.44;59.08;96957.38;10378377;28;20046;-25
2023/05/18 16:41:51;;;;;;;14.95;6.72;;;;;;;17.42;59.07;96959.91;10388311;28;20037;-26
2023/05/18 16:46:51;;;;;;;12.90;6.83;;;;;;;17.41;58.88;96959.91;10397033;28;20038;-26
2023/05/18 16:51:52;;;;;;;17.27;7.30;;;;;;;17.42;59.28;96962.44;10380398;28;20030;-26
2023/05/18 16:56:52;;;;;;;16.80;7.47;;;;;;;17.41;59.46;96955.66;10380578;28;20103;-26
2023/05/18 17:01:53;;;;;;;11.63;6.60;;;;;;;17.40;59.28;96960.75;10383223;28;20112;-26
2023/05/18 17:06:53;;;;;;;15.95;6.80;;;;;;;17.41;59.21;96964.97;10393203;28;20124;-26
2023/05/18 17:11:54;;;;;;;11.38;6.88;;;;;;;17.40;59.16;96965.81;10390794;28;20041;-25
2023/05/18 17:16:54;;;;;;;17.30;7.40;;;;;;;17.37;59.29;96968.28;10380958;28;20036;-26
2023/05/18 17:21:56;;;;;;;13.50;7.37;;;;;;;17.43;59.71;96968.34;10371629;28;20088;-26
2023/05/18 17:26:57;;;;;;;13.60;7.53;;;;;;;17.39;60.13;96971.66;10373314;28;20092;-26
2023/05/18 17:32:01;;;;;;;13.45;7.00;;;;;;;17.36;59.96;96964.06;10375841;28;20064;-26
2023/05/18 17:37:02;;;;;;;20.25;7.25;;;;;;;17.35;60.55;96969.94;10378129;28;20064;-26
2023/05/18 17:42:02;;;;;;;16.10;7.80;;;;;;;17.38;60.21;96975.03;10377456;28;20474;-26
2023/05/18 17:47:03;;;;;;;17.70;7.28;;;;;;;17.38;60.17;96977.56;10374377;28;20035;-26
2023/05/18 17:52:04;;;;;;;12.30;7.32;;;;;;;17.38;60.27;96967.44;10394168;28;20700;-25
2023/05/18 17:57:04;;;;;;;14.75;7.00;;;;;;;17.37;60.10;96968.28;10387472;28;20026;-26
2023/05/18 18:02:05;;;;;;;20.40;8.00;;;;;;;17.35;59.99;96964.88;10376366;28;20509;-26
2023/05/18 18:07:05;;;;;;;13.93;6.63;;;;;;;17.35;60.15;96975.00;10366625;28;20432;-26
2023/05/18 18:12:06;;;;;;;9.67;5.90;;;;;;;17.33;59.86;96969.91;10371908;28;20417;-25
2023/05/18 18:17:06;;;;;;;9.93;6.57;;;;;;;17.31;59.95;96966.53;10360721;28;20367;-26
2023/05/18 18:22:07;;;;;;;11.50;5.90;;;;;;;17.31;59.86;96973.28;10369041;28;20663;-26
2023/05/18 18:27:07;;;;;;;10.67;6.03;;;;;;;17.32;60.15;96967.38;10377606;28;20523;-26
2023/05/18 18:32:08;;;;;;;13.47;6.17;;;;;;;17.33;59.95;96971.63;10368466;28;20494;-26
2023/05/18 18:37:09;;;;;;;12.52;5.53;;;;;;;17.34;60.29;96985.97;10363209;28;20030;-26
2023/05/18 18:42:10;;;;;;;13.27;6.03;;;;;;;17.32;59.81;96985.09;10381297;28;20021;-26
2023/05/18 18:47:10;;;;;;;10.03;6.07;;;;;;;17.30;59.98;96987.59;10368040;28;20038;-26
2023/05/18 18:52:10;;;;;;;11.17;6.23;;;;;;;17.31;60.16;97001.94;10367403;28;20823;-26
2023/05/18 18:57:11;;;;;;;10.10;5.67;;;;;;;17.30;60.32;97000.25;10371904;28;20569;-25
2023/05/18 19:02:11;;;;;;;10.83;5.47;;;;;;;17.29;60.34;97005.31;10381065;28;20409;-26
2023/05/18 19:07:11;;;;;;;9.88;5.63;;;;;;;17.29;60.42;97010.34;10373539;28;20425;-24
2023/05/18 19:12:12;;;;;;;7.97;5.27;;;;;;;17.30;60.26;97014.59;10366940;28;20508;-26
2023/05/18 19:17:12;;;;;;;7.40;5.23;;;;;;;17.29;60.28;97025.53;10388049;28;20380;-25
2023/05/18 19:22:13;;;;;;;14.93;5.73;;;;;;;17.27;60.59;97023.03;10381949;28;20049;-26
2023/05/18 19:27:13;;;;;;;9.95;5.32;;;;;;;17.31;60.40;97039.91;10382080;28;20033;-26
2023/05/18 19:32:14;;;;;;;9.27;5.30;;;;;;;17.32;60.11;97045.84;10372220;28;20486;-26
2023/05/18 19:37:14;;;;;;;11.02;4.93;;;;;;;17.31;60.38;97044.16;10369386;28;20289;-26
2023/05/18 19:42:14;;;;;;;9.57;4.60;;;;;;;17.31;60.42;97039.09;10372672;28;20046;-26
2023/05/18 19:47:15;;;;;;;11.90;4.53;;;;;;;17.28;60.41;97036.50;10370502;28;20037;-26
2023/05/18 19:52:17;;;;;;;9.97;4.90;;;;;;;17.29;60.73;97045.78;10369583;28;20288;-26
2023/05/18 19:57:19;;;;;;;7.78;4.63;;;;;;;17.26;60.88;97045.78;10367470;28;20300;-26
2023/05/18 20:02:19;;;;;;;7.78;4.70;;;;;;;17.29;60.50;97050.84;10380397;28;20521;-26
2023/05/18 20:07:21;;;;;;;10.07;4.80;;;;;;;17.28;60.71;97060.13;10372110;28;20044;-26
2023/05/18 20:12:21;;;;;;;7.18;3.88;;;;;;;17.26;60.74;97055.88;10380735;28;20105;-25
2023/05/18 20:17:22;;;;;;;12.68;4.80;;;;;;;17.27;61.41;97052.53;10381005;28;20039;-25
2023/05/18 20:22:23;;;;;;;7.65;4.50;;;;;;;17.28;61.68;97051.69;10383309;28;20112;-25
2023/05/18 20:27:23;;;;;;;8.73;4.70;;;;;;;17.29;61.47;97050.84;10375497;28;20030;-26
2023/05/18 20:32:23;;;;;;;5.03;3.90;;;;;;;17.30;61.25;97055.06;10373539;28;20049;-25
2023/05/18 20:37:25;;;;;;;9.07;4.63;;;;;;;17.29;61.20;97053.38;10394935;28;20049;-26
2023/05/18 20:42:37;;;;;;;4.70;3.45;;;;;;;17.28;61.19;97049.16;10373654;28;20030;-26
2023/05/18 20:47:37;;;;;;;7.88;4.60;;;;;;;17.27;60.96;97053.38;10373230;28;20806;-26
2023/05/18 20:52:37;;;;;;;6.70;4.10;;;;;;;17.25;61.14;97054.19;10380615;28;20030;-26
2023/05/18 20:57:43;;;;;;;9.37;4.27;;;;;;;17.25;61.76;97056.72;10376761;28;20123;-26
2023/05/18 21:02:45;;;;;;;5.65;4.00;;;;;;;17.25;61.52;97059.25;10390673;28;20088;-31
2023/05/18 21:07:45;;;;;;;5.22;3.92;;;;;;;17.24;61.47;97062.63;10380302;28;20045;-26
2023/05/18 21:12:46;;;;;;;7.87;4.17;;;;;;;17.23;61.42;97059.22;10383459;28;20035;-25
2023/05/18 21:17:46;;;;;;;5.30;3.93;;;;;;;17.26;61.60;97058.41;10380032;28;20553;-26
2023/05/18 21:22:46;;;;;;;7.63;4.47;;;;;;;17.28;61.83;97051.69;10370537;28;20038;-26
2023/05/18 21:27:47;;;;;;;5.37;3.87;;;;;;;17.28;61.41;97044.97;10370251;28;20362;-26
2023/05/18 21:32:48;;;;;;;5.93;3.90;;;;;;;17.31;61.05;97054.28;10385240;28;20392;-26
2023/05/18 21:37:48;;;;;;;8.05;3.60;;;;;;;17.26;61.34;97043.25;10394051;28;20125;-25
2023/05/18 21:42:48;;;;;;;7.93;4.00;;;;;;;17.23;61.37;97035.63;10377243;28;20557;-26
2023/05/18 21:47:49;;;;;;;5.70;3.67;;;;;;;17.26;61.56;97045.78;10394943;28;20497;-26
2023/05/18 21:52:50;;;;;;;6.80;4.05;;;;;;;17.26;61.33;97041.53;10386322;28;20109;-26
2023/05/18 21:57:50;;;;;;;5.18;3.50;;;;;;;17.23;61.56;97028.03;10399163;28;20393;-26
2023/05/18 22:02:51;;;;;;;7.93;3.80;;;;;;;17.24;61.30;97030.56;10387911;28;20037;-26
2023/05/18 22:07:51;;;;;;;5.40;3.67;;;;;;;17.24;61.29;97040.69;10377307;28;20049;-26
2023/05/18 22:12:51;;;;;;;5.40;3.80;;;;;;;17.23;61.40;97041.53;10373104;28;20041;-26
2023/05/18 22:17:53;;;;;;;5.80;3.40;;;;;;;17.23;61.76;97038.16;10387281;28;20061;-25
2023/05/18 22:22:53;;;;;;;7.10;3.67;;;;;;;17.26;61.76;97035.66;10356173;28;20034;-26
2023/05/18 22:27:54;;;;;;;5.70;3.50;;;;;;;17.25;61.65;97037.31;10392652;28;20034;-26
2023/05/18 22:32:57;;;;;;;4.55;3.47;;;;;;;17.28;61.17;97031.44;10391837;28;20030;-26
2023/05/18 22:37:57;;;;;;;4.43;3.63;;;;;;;17.26;61.11;97040.72;10377394;28;20032;-26
2023/05/18 22:42:58;;;;;;;7.63;4.00;;;;;;;17.24;61.23;97035.63;10392606;28;20497;-26
2023/05/18 22:47:59;;;;;;;5.82;3.70;;;;;;;17.24;61.40;97029.72;10404398;28;20037;-26
2023/05/18 22:53:01;;;;;;;5.07;3.10;;;;;;;17.22;61.44;97028.84;10373659;28;20034;-26
2023/05/18 22:58:01;;;;;;;4.97;3.40;;;;;;;17.22;61.22;97028.84;10377889;28;20045;-26
2023/05/18 23:03:01;;;;;;;4.38;2.90;;;;;;;17.21;61.55;97022.94;10390385;28;20026;-26
2023/05/18 23:08:03;;;;;;;3.65;3.17;;;;;;;17.21;61.47;97011.97;10375525;28;20557;-26
2023/05/18 23:13:04;;;;;;;3.85;2.92;;;;;;;17.20;61.27;97013.66;10382972;28;20502;-26
2023/05/18 23:18:07;;;;;;;7.10;3.77;;;;;;;17.21;61.54;97012.84;10375944;28;20033;-26
2023/05/18 23:23:08;;;;;;;5.40;3.70;;;;;;;17.24;61.74;97006.97;10382863;28;20850;-25